Time;durP1;ratioP1;P1;durP2;ratioP2;P2;SDS_P1;SDS_P2;PMS_P1;PMS_P2;Temp;Humidity;BMP_temperature;BMP_pressure;BME280_temperature;BME280_humidity;BME280_pressure;Samples;Min_cycle;Max_cycle;Signal;HPM_P1;HPM_P2
2020/12/13 00:01:55;;;;;;;2.10;0.60;;;;;;;;;;4922832;29;20076;-58
2020/12/13 00:04:21;;;;;;;3.20;0.80;;;;;;;;;;4924424;29;20100;-58
2020/12/13 00:06:47;;;;;;;2.63;0.90;;;;;;;;;;4923477;29;20103;-57
2020/12/13 00:09:13;;;;;;;1.67;0.60;;;;;;;;;;4926086;29;20433;-57
2020/12/13 00:11:39;;;;;;;1.63;0.63;;;;;;;;;;4928382;29;20056;-59
2020/12/13 00:14:05;;;;;;;3.25;0.70;;;;;;;;;;4929126;29;20048;-57
2020/12/13 00:16:30;;;;;;;2.13;0.70;;;;;;;;;;4927825;29;20150;-57
2020/12/13 00:18:56;;;;;;;2.28;0.80;;;;;;;;;;4929559;29;20099;-58
2020/12/13 00:21:26;;;;;;;1.90;0.60;;;;;;;;;;4926866;29;20042;-58
2020/12/13 00:23:53;;;;;;;4.18;1.20;;;;;;;;;;4925687;29;20044;-56
2020/12/13 00:26:19;;;;;;;2.50;0.73;;;;;;;;;;4924649;29;20051;-57
2020/12/13 00:28:46;;;;;;;5.40;0.88;;;;;;;;;;4927593;29;20131;-57
2020/12/13 00:31:15;;;;;;;2.47;0.60;;;;;;;;;;4925867;29;20146;-56
2020/12/13 00:33:42;;;;;;;1.98;0.70;;;;;;;;;;4924987;29;20055;-58
2020/12/13 00:36:08;;;;;;;1.85;0.65;;;;;;;;;;4926602;29;20044;-58
2020/12/13 00:38:33;;;;;;;1.40;0.68;;;;;;;;;;4927899;29;20289;-58
2020/12/13 00:41:00;;;;;;;2.72;0.80;;;;;;;;;;4927935;29;20577;-59
2020/12/13 00:43:25;;;;;;;1.80;0.55;;;;;;;;;;4927052;29;20048;-59
2020/12/13 00:45:51;;;;;;;3.00;1.00;;;;;;;;;;4925373;29;20505;-58
2020/12/13 00:48:17;;;;;;;2.20;0.70;;;;;;;;;;4927025;29;20040;-58
2020/12/13 00:50:43;;;;;;;1.90;0.70;;;;;;;;;;4925602;29;20056;-57
2020/12/13 00:53:09;;;;;;;2.97;0.77;;;;;;;;;;4925703;29;20052;-58
2020/12/13 00:55:35;;;;;;;1.77;0.73;;;;;;;;;;4924343;29;20055;-57
2020/12/13 00:58:01;;;;;;;3.60;0.70;;;;;;;;;;4926689;29;20108;-57
2020/12/13 01:00:27;;;;;;;2.30;0.80;;;;;;;;;;4924831;29;20120;-58
2020/12/13 01:02:57;;;;;;;1.77;0.80;;;;;;;;;;4926589;29;20155;-58
2020/12/13 01:05:23;;;;;;;2.13;0.60;;;;;;;;;;4925875;29;20044;-58
2020/12/13 01:07:49;;;;;;;5.43;1.05;;;;;;;;;;4927090;29;20036;-57
2020/12/13 01:10:14;;;;;;;2.88;0.80;;;;;;;;;;4926650;29;20051;-56
2020/12/13 01:12:41;;;;;;;2.10;0.60;;;;;;;;;;4924949;29;20042;-58
2020/12/13 01:15:07;;;;;;;1.98;0.60;;;;;;;;;;4925766;29;20059;-57
2020/12/13 01:17:33;;;;;;;2.58;0.73;;;;;;;;;;4925276;29;20044;-57
2020/12/13 01:19:59;;;;;;;1.98;0.73;;;;;;;;;;4925445;29;20054;-58
2020/12/13 01:22:25;;;;;;;1.85;0.70;;;;;;;;;;4926959;29;20040;-57
2020/12/13 01:24:51;;;;;;;1.67;0.50;;;;;;;;;;4923719;29;20055;-58
2020/12/13 01:27:18;;;;;;;4.05;0.70;;;;;;;;;;4926275;29;20099;-58
2020/12/13 01:29:44;;;;;;;2.03;0.70;;;;;;;;;;4924148;29;20075;-57
2020/12/13 01:32:09;;;;;;;4.85;0.70;;;;;;;;;;4926988;29;20055;-55
2020/12/13 01:34:36;;;;;;;1.83;0.80;;;;;;;;;;4924655;29;20714;-56
2020/12/13 01:37:02;;;;;;;2.42;0.80;;;;;;;;;;4926741;29;20044;-57
2020/12/13 01:39:28;;;;;;;3.38;0.77;;;;;;;;;;4923045;29;20059;-57
2020/12/13 01:41:57;;;;;;;5.80;1.10;;;;;;;;;;4926202;29;20056;-57
2020/12/13 01:44:28;;;;;;;2.53;0.90;;;;;;;;;;4923601;29;20099;-57
2020/12/13 01:46:54;;;;;;;3.03;0.90;;;;;;;;;;4924410;29;20068;-58
2020/12/13 01:49:20;;;;;;;2.95;0.85;;;;;;;;;;4922808;29;20043;-56
2020/12/13 01:51:53;;;;;;;2.22;0.70;;;;;;;;;;4910975;29;20059;-58
2020/12/13 01:54:20;;;;;;;2.67;1.00;;;;;;;;;;4924200;29;20159;-58
2020/12/13 01:56:47;;;;;;;2.42;0.70;;;;;;;;;;4927371;29;20043;-58
2020/12/13 01:59:16;;;;;;;3.22;1.15;;;;;;;;;;4906179;29;20170;-58
2020/12/13 02:01:45;;;;;;;3.35;1.08;;;;;;;;;;4925278;29;20047;-56
2020/12/13 02:04:14;;;;;;;2.63;0.90;;;;;;;;;;4923636;29;20183;-57
2020/12/13 02:06:42;;;;;;;2.58;0.80;;;;;;;;;;4925016;29;20119;-59
2020/12/13 02:09:09;;;;;;;2.40;0.80;;;;;;;;;;4924575;29;20046;-58
2020/12/13 02:11:35;;;;;;;3.35;1.00;;;;;;;;;;4924499;29;20208;-56
2020/12/13 02:14:01;;;;;;;2.75;0.70;;;;;;;;;;4923966;29;20032;-60
2020/12/13 02:16:27;;;;;;;3.00;0.88;;;;;;;;;;4925257;29;20076;-58
2020/12/13 02:18:52;;;;;;;3.53;0.70;;;;;;;;;;4926937;29;20044;-58
2020/12/13 02:21:18;;;;;;;2.22;0.60;;;;;;;;;;4924296;29;20044;-59
2020/12/13 02:23:45;;;;;;;3.85;0.85;;;;;;;;;;4925899;29;20048;-57
2020/12/13 02:26:14;;;;;;;6.43;0.90;;;;;;;;;;4924124;29;20067;-59
2020/12/13 02:28:40;;;;;;;3.28;0.95;;;;;;;;;;4924622;29;20052;-59
2020/12/13 02:31:07;;;;;;;2.70;0.80;;;;;;;;;;4924788;29;20083;-59
2020/12/13 02:33:35;;;;;;;2.25;0.80;;;;;;;;;;4925644;29;20047;-59
2020/12/13 02:36:01;;;;;;;1.80;0.68;;;;;;;;;;4924412;29;20036;-57
2020/12/13 02:38:28;;;;;;;4.85;1.08;;;;;;;;;;4925528;29;20051;-59
2020/12/13 02:40:54;;;;;;;5.45;1.10;;;;;;;;;;4924212;29;20031;-60
2020/12/13 02:43:20;;;;;;;2.15;0.70;;;;;;;;;;4924008;29;20044;-57
2020/12/13 02:45:46;;;;;;;2.35;0.52;;;;;;;;;;4926143;29;20051;-57
2020/12/13 02:48:12;;;;;;;5.15;1.17;;;;;;;;;;4925816;29;20107;-59
2020/12/13 02:50:38;;;;;;;5.13;0.80;;;;;;;;;;4923659;29;20048;-59
2020/12/13 02:53:04;;;;;;;1.67;0.60;;;;;;;;;;4925724;29;20040;-59
2020/12/13 02:55:30;;;;;;;5.38;0.80;;;;;;;;;;4924023;29;20071;-58
2020/12/13 02:57:56;;;;;;;2.08;0.68;;;;;;;;;;4925362;29;20043;-58
2020/12/13 03:00:22;;;;;;;3.90;0.82;;;;;;;;;;4923390;29;20075;-58
2020/12/13 03:02:48;;;;;;;2.50;0.70;;;;;;;;;;4925658;29;20047;-59
2020/12/13 03:05:14;;;;;;;1.60;0.60;;;;;;;;;;4923516;29;20056;-58
2020/12/13 03:07:40;;;;;;;5.32;0.95;;;;;;;;;;4923549;29;20112;-58
2020/12/13 03:10:05;;;;;;;4.97;0.82;;;;;;;;;;4919974;29;20036;-58
2020/12/13 03:12:31;;;;;;;4.25;0.90;;;;;;;;;;4923474;29;20096;-57
2020/12/13 03:14:57;;;;;;;2.95;1.02;;;;;;;;;;4925059;29;20044;-58
2020/12/13 03:17:23;;;;;;;3.63;0.73;;;;;;;;;;4926155;29;20046;-58
2020/12/13 03:19:49;;;;;;;3.55;1.00;;;;;;;;;;4907201;29;20078;-58
2020/12/13 03:22:14;;;;;;;4.30;1.50;;;;;;;;;;4925469;29;20102;-58
2020/12/13 03:24:40;;;;;;;5.90;1.25;;;;;;;;;;4925273;29;20035;-58
2020/12/13 03:27:06;;;;;;;2.80;0.90;;;;;;;;;;4925980;29;20048;-59
2020/12/13 03:29:32;;;;;;;4.55;1.20;;;;;;;;;;4913810;29;20084;-58
2020/12/13 03:31:58;;;;;;;4.13;1.23;;;;;;;;;;4927081;29;20051;-57
2020/12/13 03:34:24;;;;;;;3.03;1.10;;;;;;;;;;4926281;29;20036;-59
2020/12/13 03:36:50;;;;;;;3.38;1.52;;;;;;;;;;4927167;29;20048;-57
2020/12/13 03:39:16;;;;;;;3.10;0.95;;;;;;;;;;4909825;29;20040;-58
2020/12/13 03:41:42;;;;;;;4.57;1.90;;;;;;;;;;4927145;29;20616;-59
2020/12/13 03:44:10;;;;;;;3.38;1.25;;;;;;;;;;4932916;29;20072;-58
2020/12/13 03:46:35;;;;;;;7.82;2.50;;;;;;;;;;4932775;29;20032;-59
2020/12/13 03:49:01;;;;;;;6.03;2.10;;;;;;;;;;4931399;29;20131;-59
2020/12/13 03:51:27;;;;;;;4.28;1.90;;;;;;;;;;4934114;29;20062;-59
2020/12/13 03:53:53;;;;;;;4.03;1.40;;;;;;;;;;4933907;29;20044;-58
2020/12/13 03:56:19;;;;;;;3.78;1.50;;;;;;;;;;4932911;29;20048;-59
2020/12/13 03:58:45;;;;;;;4.53;1.30;;;;;;;;;;4936002;29;20070;-59
2020/12/13 04:01:11;;;;;;;4.15;1.30;;;;;;;;;;4934969;29;20094;-58
2020/12/13 04:03:36;;;;;;;5.38;2.05;;;;;;;;;;4932986;29;20056;-59
2020/12/13 04:06:02;;;;;;;3.38;1.10;;;;;;;;;;4930056;29;20047;-59
2020/12/13 04:08:28;;;;;;;2.13;0.77;;;;;;;;;;4918894;29;20229;-59
2020/12/13 04:10:54;;;;;;;1.98;0.65;;;;;;;;;;4930476;29;20052;-59
2020/12/13 04:13:20;;;;;;;2.08;0.88;;;;;;;;;;4930917;29;20048;-59
2020/12/13 04:15:46;;;;;;;4.72;0.98;;;;;;;;;;4928840;29;20044;-58
2020/12/13 04:18:11;;;;;;;3.75;1.40;;;;;;;;;;4929935;29;20701;-59
2020/12/13 04:20:37;;;;;;;3.83;1.20;;;;;;;;;;4914455;29;20051;-58
2020/12/13 04:23:03;;;;;;;3.38;1.17;;;;;;;;;;4931190;29;20048;-56
2020/12/13 04:25:29;;;;;;;3.78;1.30;;;;;;;;;;4930528;29;20051;-57
2020/12/13 04:27:55;;;;;;;3.63;1.25;;;;;;;;;;4931418;29;20051;-58
2020/12/13 04:30:21;;;;;;;7.97;0.98;;;;;;;;;;4929155;29;20740;-59
2020/12/13 04:32:46;;;;;;;2.28;0.80;;;;;;;;;;4931014;29;20047;-59
2020/12/13 04:35:12;;;;;;;1.77;0.60;;;;;;;;;;4929560;29;20052;-59
2020/12/13 04:37:38;;;;;;;2.83;0.70;;;;;;;;;;4930456;29;20054;-59
2020/12/13 04:40:04;;;;;;;2.20;0.70;;;;;;;;;;4929680;29;20039;-59
2020/12/13 04:42:33;;;;;;;3.28;0.90;;;;;;;;;;4930272;29;20044;-59
2020/12/13 04:45:00;;;;;;;2.08;0.70;;;;;;;;;;4931170;29;20039;-58
2020/12/13 04:47:27;;;;;;;2.35;1.00;;;;;;;;;;4930310;29;20600;-58
2020/12/13 04:49:54;;;;;;;2.38;0.90;;;;;;;;;;4929296;29;20068;-58
2020/12/13 04:52:20;;;;;;;4.05;1.27;;;;;;;;;;4928074;29;20048;-58
2020/12/13 04:54:48;;;;;;;3.38;0.80;;;;;;;;;;4928993;29;20045;-57
2020/12/13 04:57:14;;;;;;;2.55;0.93;;;;;;;;;;4928513;29;20437;-58
2020/12/13 04:59:39;;;;;;;2.83;0.88;;;;;;;;;;4927184;29;20565;-58
2020/12/13 05:02:05;;;;;;;2.90;0.80;;;;;;;;;;4927281;29;20039;-58
2020/12/13 05:04:32;;;;;;;3.35;0.85;;;;;;;;;;4926997;29;20063;-58
2020/12/13 05:06:58;;;;;;;2.53;0.70;;;;;;;;;;4925931;29;20048;-58
2020/12/13 05:09:24;;;;;;;1.90;0.85;;;;;;;;;;4925260;29;20281;-57
2020/12/13 05:11:50;;;;;;;2.63;1.00;;;;;;;;;;4925700;29;20052;-57
2020/12/13 05:14:16;;;;;;;3.97;1.45;;;;;;;;;;4927390;29;20991;-58
2020/12/13 05:16:42;;;;;;;2.35;0.68;;;;;;;;;;4927474;29;20072;-58
2020/12/13 05:19:08;;;;;;;4.43;1.30;;;;;;;;;;4927052;29;20067;-58
2020/12/13 05:21:35;;;;;;;2.95;0.73;;;;;;;;;;4923267;29;20067;-58
2020/12/13 05:24:04;;;;;;;1.95;0.73;;;;;;;;;;4925562;29;20045;-57
2020/12/13 05:26:30;;;;;;;3.22;0.82;;;;;;;;;;4924472;29;20142;-57
2020/12/13 05:28:58;;;;;;;4.25;1.40;;;;;;;;;;4928504;29;20473;-58
2020/12/13 05:31:26;;;;;;;6.43;0.98;;;;;;;;;;4924396;29;20051;-58
2020/12/13 05:34:13;;;;;;;2.40;0.75;;;;;;;;;;4925619;29;20035;-57
2020/12/13 05:36:41;;;;;;;1.33;0.60;;;;;;;;;;4923391;29;20075;-57
2020/12/13 05:39:09;;;;;;;5.10;1.15;;;;;;;;;;4925194;29;20036;-58
2020/12/13 05:41:37;;;;;;;2.50;1.00;;;;;;;;;;4925875;29;20051;-57
2020/12/13 05:44:59;;;;;;;4.60;1.30;;;;;;;;;;4926753;29;20070;-58
2020/12/13 05:50:10;;;;;;;2.70;1.02;;;;;;;;;;4926271;29;20047;-58
2020/12/13 05:52:41;;;;;;;3.40;1.00;;;;;;;;;;4924319;29;20623;-58
2020/12/13 05:55:07;;;;;;;4.68;1.33;;;;;;;;;;4920116;29;20055;-56
2020/12/13 05:57:33;;;;;;;7.47;1.65;;;;;;;;;;4924420;29;20044;-56
2020/12/13 06:00:00;;;;;;;5.00;1.42;;;;;;;;;;4925494;29;20044;-58
2020/12/13 06:02:27;;;;;;;3.15;1.13;;;;;;;;;;4925590;29;20138;-58
2020/12/13 06:05:00;;;;;;;4.95;1.60;;;;;;;;;;4926298;29;20048;-58
2020/12/13 06:07:30;;;;;;;7.93;1.02;;;;;;;;;;4924605;29;20059;-57
2020/12/13 06:10:01;;;;;;;2.28;0.80;;;;;;;;;;4926519;29;20063;-58
2020/12/13 06:12:29;;;;;;;3.67;1.33;;;;;;;;;;4925559;29;20052;-59
2020/12/13 06:14:58;;;;;;;5.18;1.58;;;;;;;;;;4925466;29;20063;-58
2020/12/13 06:17:25;;;;;;;3.78;1.23;;;;;;;;;;4926882;29;20126;-58
2020/12/13 06:19:51;;;;;;;2.30;0.85;;;;;;;;;;4927952;29;20095;-58
2020/12/13 06:22:17;;;;;;;3.05;1.05;;;;;;;;;;4926943;29;20737;-58
2020/12/13 06:24:46;;;;;;;2.75;1.02;;;;;;;;;;4909660;29;20070;-58
2020/12/13 06:27:12;;;;;;;1.20;0.60;;;;;;;;;;4926523;29;20052;-58
2020/12/13 06:29:41;;;;;;;5.93;1.42;;;;;;;;;;4924320;29;20816;-58
2020/12/13 06:32:08;;;;;;;3.10;1.17;;;;;;;;;;4925858;29;20147;-56
2020/12/13 06:34:34;;;;;;;5.88;1.52;;;;;;;;;;4923910;29;20208;-58
2020/12/13 06:37:01;;;;;;;3.83;1.40;;;;;;;;;;4926090;29;20149;-58
2020/12/13 06:39:27;;;;;;;11.68;1.60;;;;;;;;;;4925518;29;20083;-58
2020/12/13 06:41:53;;;;;;;6.80;1.65;;;;;;;;;;4926597;29;20031;-59
2020/12/13 06:44:19;;;;;;;4.30;1.30;;;;;;;;;;4924743;29;20059;-58
2020/12/13 06:46:46;;;;;;;4.22;1.30;;;;;;;;;;4924731;29;21109;-57
2020/12/13 06:49:13;;;;;;;4.68;1.63;;;;;;;;;;4909126;29;20901;-58
2020/12/13 06:51:43;;;;;;;5.35;1.52;;;;;;;;;;4925947;29;20103;-58
2020/12/13 06:54:13;;;;;;;4.55;1.38;;;;;;;;;;4926334;29;20132;-58
2020/12/13 06:56:39;;;;;;;3.60;1.33;;;;;;;;;;4924232;29;20040;-58
2020/12/13 06:59:06;;;;;;;3.30;1.20;;;;;;;;;;4927089;29;20036;-59
2020/12/13 07:01:35;;;;;;;8.35;1.40;;;;;;;;;;4926606;29;20054;-55
2020/12/13 07:04:19;;;;;;;3.67;1.20;;;;;;;;;;4925469;29;20044;-59
2020/12/13 07:06:46;;;;;;;4.30;2.80;;;;;;;;;;4924125;29;20044;-59
2020/12/13 07:09:13;;;;;;;3.50;1.33;;;;;;;;;;4925587;29;20154;-59
2020/12/13 07:11:43;;;;;;;7.70;1.58;;;;;;;;;;4908056;29;20112;-59
2020/12/13 07:14:12;;;;;;;4.28;1.35;;;;;;;;;;4926765;29;20052;-58
2020/12/13 07:16:42;;;;;;;3.50;1.00;;;;;;;;;;4924047;29;20051;-57
2020/12/13 07:19:09;;;;;;;5.28;1.42;;;;;;;;;;4924329;29;20044;-59
2020/12/13 07:21:36;;;;;;;1.38;0.60;;;;;;;;;;4925367;29;20047;-57
2020/12/13 07:24:02;;;;;;;7.53;1.73;;;;;;;;;;4926823;29;20606;-58
2020/12/13 07:26:29;;;;;;;3.22;0.88;;;;;;;;;;4923092;29;20032;-56
2020/12/13 07:28:55;;;;;;;4.22;1.40;;;;;;;;;;4925316;29;20044;-57
2020/12/13 07:31:22;;;;;;;4.82;1.40;;;;;;;;;;4924696;29;20051;-57
2020/12/13 07:33:48;;;;;;;4.82;1.50;;;;;;;;;;4925691;29;20036;-57
2020/12/13 07:36:13;;;;;;;2.63;0.80;;;;;;;;;;4925755;29;20357;-57
2020/12/13 07:38:40;;;;;;;4.68;1.20;;;;;;;;;;4924723;29;20040;-60
2020/12/13 07:41:13;;;;;;;3.47;1.10;;;;;;;;;;4925227;29;20131;-58
2020/12/13 07:43:49;;;;;;;4.40;1.27;;;;;;;;;;4925279;29;22351;-57
2020/12/13 07:46:15;;;;;;;4.60;1.55;;;;;;;;;;4924862;29;20060;-56
2020/12/13 07:48:41;;;;;;;11.98;2.13;;;;;;;;;;4925521;29;20044;-57
2020/12/13 07:51:07;;;;;;;4.15;1.30;;;;;;;;;;4923939;29;20087;-58
2020/12/13 07:53:33;;;;;;;4.07;1.20;;;;;;;;;;4923219;29;20055;-56
2020/12/13 07:55:59;;;;;;;2.90;1.10;;;;;;;;;;4925308;29;20047;-57
2020/12/13 07:58:25;;;;;;;8.02;1.70;;;;;;;;;;4924767;29;20047;-57
2020/12/13 08:00:50;;;;;;;3.40;1.30;;;;;;;;;;4924901;29;20076;-58
2020/12/13 08:03:16;;;;;;;4.93;1.10;;;;;;;;;;4926248;29;20234;-58
2020/12/13 08:05:44;;;;;;;7.20;1.75;;;;;;;;;;4922810;29;21176;-54
2020/12/13 08:08:10;;;;;;;7.05;1.55;;;;;;;;;;4926990;29;20045;-57
2020/12/13 08:10:36;;;;;;;2.65;0.90;;;;;;;;;;4924082;29;20040;-57
2020/12/13 08:13:07;;;;;;;6.32;1.40;;;;;;;;;;4908643;29;20108;-55
2020/12/13 08:15:33;;;;;;;4.47;1.23;;;;;;;;;;4925033;29;20031;-57
2020/12/13 08:18:02;;;;;;;5.15;1.58;;;;;;;;;;4924669;29;20700;-56
2020/12/13 08:20:29;;;;;;;3.63;1.30;;;;;;;;;;4923334;29;20072;-54
2020/12/13 08:22:56;;;;;;;6.25;1.40;;;;;;;;;;4925027;29;20032;-58
2020/12/13 08:25:22;;;;;;;4.63;1.30;;;;;;;;;;4924753;29;20103;-57
2020/12/13 08:27:49;;;;;;;5.15;1.50;;;;;;;;;;4926670;29;20063;-58
2020/12/13 08:30:18;;;;;;;5.55;1.60;;;;;;;;;;4923384;29;20040;-57
2020/12/13 08:32:44;;;;;;;5.38;1.48;;;;;;;;;;4928530;29;20139;-56
2020/12/13 08:35:14;;;;;;;5.35;1.52;;;;;;;;;;4927838;29;20071;-56
2020/12/13 08:37:40;;;;;;;5.38;1.45;;;;;;;;;;4926782;29;20070;-56
2020/12/13 08:40:09;;;;;;;3.95;1.40;;;;;;;;;;4927808;29;20051;-58
2020/12/13 08:42:35;;;;;;;4.30;1.30;;;;;;;;;;4929216;29;20074;-57
2020/12/13 08:45:01;;;;;;;4.85;1.40;;;;;;;;;;4928477;29;20043;-57
2020/12/13 08:47:31;;;;;;;4.95;1.60;;;;;;;;;;4928194;29;20057;-58
2020/12/13 08:49:57;;;;;;;5.93;1.83;;;;;;;;;;4926309;29;20046;-58
2020/12/13 08:52:24;;;;;;;4.68;1.27;;;;;;;;;;4929147;29;20138;-58
2020/12/13 08:54:50;;;;;;;6.65;1.20;;;;;;;;;;4926552;29;20056;-57
2020/12/13 08:57:35;;;;;;;4.15;1.20;;;;;;;;;;4923352;29;20051;-57
2020/12/13 09:00:09;;;;;;;5.32;1.33;;;;;;;;;;4926102;29;20092;-56
2020/12/13 09:02:34;;;;;;;5.22;1.52;;;;;;;;;;4926438;29;20050;-57
2020/12/13 09:05:01;;;;;;;3.60;1.10;;;;;;;;;;4926972;29;20047;-54
2020/12/13 09:07:33;;;;;;;5.20;1.52;;;;;;;;;;4926517;29;20099;-59
2020/12/13 09:10:18;;;;;;;3.33;0.90;;;;;;;;;;4925363;29;20325;-56
2020/12/13 09:12:44;;;;;;;3.92;1.10;;;;;;;;;;4923058;29;20087;-54
2020/12/13 09:15:11;;;;;;;6.43;1.45;;;;;;;;;;4928505;29;20043;-58
2020/12/13 09:17:38;;;;;;;4.38;1.33;;;;;;;;;;4926059;29;20107;-59
2020/12/13 09:20:04;;;;;;;7.63;1.35;;;;;;;;;;4923589;29;21436;-58
2020/12/13 09:22:30;;;;;;;5.90;1.50;;;;;;;;;;4926543;29;20043;-54
2020/12/13 09:24:57;;;;;;;4.10;1.50;;;;;;;;;;4896706;29;20088;-59
2020/12/13 09:27:23;;;;;;;5.60;1.10;;;;;;;;;;4926700;29;20103;-56
2020/12/13 09:29:50;;;;;;;4.10;1.40;;;;;;;;;;4927456;29;20059;-59
2020/12/13 09:32:16;;;;;;;3.60;0.98;;;;;;;;;;4927714;29;20048;-57
2020/12/13 09:34:43;;;;;;;4.95;1.10;;;;;;;;;;4926444;29;20047;-57
2020/12/13 09:37:09;;;;;;;6.88;1.70;;;;;;;;;;4929954;29;20042;-58
2020/12/13 09:39:35;;;;;;;3.15;0.90;;;;;;;;;;4927479;29;20134;-58
2020/12/13 09:42:02;;;;;;;3.55;1.30;;;;;;;;;;4926341;29;20405;-56
2020/12/13 09:44:28;;;;;;;12.05;2.08;;;;;;;;;;4924946;29;20040;-58
2020/12/13 09:46:58;;;;;;;3.75;1.00;;;;;;;;;;4929552;29;20164;-56
2020/12/13 09:49:25;;;;;;;4.82;1.30;;;;;;;;;;4928411;29;20405;-58
2020/12/13 09:52:04;;;;;;;5.50;1.33;;;;;;;;;;4928644;29;20052;-60
2020/12/13 09:54:32;;;;;;;6.90;1.42;;;;;;;;;;4927753;29;20067;-59
2020/12/13 09:56:58;;;;;;;3.10;1.10;;;;;;;;;;4927585;29;20050;-59
2020/12/13 09:59:26;;;;;;;7.53;1.20;;;;;;;;;;4926064;29;20047;-58
2020/12/13 10:01:52;;;;;;;3.08;1.13;;;;;;;;;;4907208;29;20099;-58
2020/12/13 10:04:20;;;;;;;4.45;1.35;;;;;;;;;;4927363;29;20809;-58
2020/12/13 10:07:01;;;;;;;6.93;0.90;;;;;;;;;;4927623;29;20040;-58
2020/12/13 10:09:27;;;;;;;4.22;1.20;;;;;;;;;;4924822;29;20047;-59
2020/12/13 10:11:53;;;;;;;5.85;1.58;;;;;;;;;;4927370;29;20059;-57
2020/12/13 10:14:20;;;;;;;5.53;0.88;;;;;;;;;;4924926;29;20116;-57
2020/12/13 10:16:46;;;;;;;6.25;1.42;;;;;;;;;;4926318;29;20100;-55
2020/12/13 10:19:12;;;;;;;4.70;1.15;;;;;;;;;;4924926;29;20094;-58
2020/12/13 10:21:38;;;;;;;7.55;1.80;;;;;;;;;;4913386;29;23163;-57
2020/12/13 10:24:05;;;;;;;4.63;2.42;;;;;;;;;;4924863;29;20137;-56
2020/12/13 10:26:32;;;;;;;7.25;1.50;;;;;;;;;;4926243;29;20537;-55
2020/12/13 10:28:58;;;;;;;4.72;1.35;;;;;;;;;;4925251;29;20036;-59
2020/12/13 10:31:31;;;;;;;4.13;0.90;;;;;;;;;;4924849;29;20080;-57
2020/12/13 10:33:57;;;;;;;4.10;1.08;;;;;;;;;;4924927;29;20152;-57
2020/12/13 10:36:24;;;;;;;2.72;0.90;;;;;;;;;;4925388;29;20042;-56
2020/12/13 10:38:51;;;;;;;4.03;1.20;;;;;;;;;;4925940;29;20071;-58
2020/12/13 10:41:19;;;;;;;1.65;0.57;;;;;;;;;;4923583;29;20119;-58
2020/12/13 10:43:45;;;;;;;4.35;1.00;;;;;;;;;;4928023;29;20052;-58
2020/12/13 10:46:10;;;;;;;6.97;1.48;;;;;;;;;;4924881;29;20037;-57
2020/12/13 10:48:36;;;;;;;2.42;0.82;;;;;;;;;;4910626;29;20039;-57
2020/12/13 10:51:02;;;;;;;4.90;1.95;;;;;;;;;;4924910;29;20052;-57
2020/12/13 10:53:28;;;;;;;6.10;1.10;;;;;;;;;;4923927;29;20082;-57
2020/12/13 10:55:54;;;;;;;4.47;1.30;;;;;;;;;;4925148;29;20044;-55
2020/12/13 10:58:20;;;;;;;4.30;1.02;;;;;;;;;;4923650;29;20055;-58
2020/12/13 11:00:47;;;;;;;3.33;1.23;;;;;;;;;;4923701;29;20055;-58
2020/12/13 11:03:13;;;;;;;5.93;1.50;;;;;;;;;;4923861;29;20829;-56
2020/12/13 11:05:39;;;;;;;3.88;1.35;;;;;;;;;;4922940;29;20043;-58
2020/12/13 11:08:04;;;;;;;4.18;1.25;;;;;;;;;;4923226;29;20094;-55
2020/12/13 11:10:30;;;;;;;4.55;1.20;;;;;;;;;;4922335;29;20051;-58
2020/12/13 11:12:56;;;;;;;4.05;1.38;;;;;;;;;;4925860;29;20058;-58
2020/12/13 11:15:22;;;;;;;4.38;1.58;;;;;;;;;;4924311;29;20055;-58
2020/12/13 11:17:48;;;;;;;2.95;0.85;;;;;;;;;;4924984;29;20040;-58
2020/12/13 11:20:14;;;;;;;4.88;1.50;;;;;;;;;;4923806;29;20032;-58
2020/12/13 11:22:40;;;;;;;5.25;1.50;;;;;;;;;;4923701;29;20063;-55
2020/12/13 11:25:05;;;;;;;12.35;1.23;;;;;;;;;;4924255;29;20694;-57
2020/12/13 11:27:31;;;;;;;4.10;1.40;;;;;;;;;;4923243;29;20044;-57
2020/12/13 11:29:58;;;;;;;4.50;1.30;;;;;;;;;;4924447;29;20048;-58
2020/12/13 11:32:27;;;;;;;4.10;1.27;;;;;;;;;;4926131;29;20200;-58
2020/12/13 11:34:53;;;;;;;5.18;1.58;;;;;;;;;;4924121;29;20056;-57
2020/12/13 11:37:19;;;;;;;3.05;1.00;;;;;;;;;;4925856;29;20036;-57
2020/12/13 11:39:45;;;;;;;3.08;0.85;;;;;;;;;;4924451;29;20461;-57
2020/12/13 11:42:11;;;;;;;4.63;1.17;;;;;;;;;;4924808;29;20040;-58
2020/12/13 11:44:37;;;;;;;3.60;1.35;;;;;;;;;;4923284;29;21296;-58
2020/12/13 11:47:03;;;;;;;5.88;1.50;;;;;;;;;;4927543;29;20573;-57
2020/12/13 11:49:29;;;;;;;6.00;1.70;;;;;;;;;;4926038;29;20051;-55
2020/12/13 11:51:54;;;;;;;3.72;1.20;;;;;;;;;;4925056;29;20056;-57
2020/12/13 11:54:23;;;;;;;4.47;1.30;;;;;;;;;;4923524;29;20099;-57
2020/12/13 11:56:48;;;;;;;4.47;1.38;;;;;;;;;;4922709;29;20047;-57
2020/12/13 11:59:14;;;;;;;5.45;1.42;;;;;;;;;;4928104;29;20414;-57
2020/12/13 12:01:44;;;;;;;4.70;1.40;;;;;;;;;;4924574;29;20056;-58
2020/12/13 12:04:10;;;;;;;4.95;1.33;;;;;;;;;;4918441;29;20052;-58
2020/12/13 12:06:36;;;;;;;7.13;1.55;;;;;;;;;;4928021;29;20107;-57
2020/12/13 12:09:02;;;;;;;6.53;1.35;;;;;;;;;;4927389;29;20067;-57
2020/12/13 12:11:29;;;;;;;5.32;1.30;;;;;;;;;;4928375;29;20056;-58
2020/12/13 12:13:55;;;;;;;4.70;0.93;;;;;;;;;;4929360;29;20054;-58
2020/12/13 12:16:25;;;;;;;4.82;1.30;;;;;;;;;;4929186;29;20048;-58
2020/12/13 12:18:51;;;;;;;6.00;1.17;;;;;;;;;;4927727;29;20076;-58
2020/12/13 12:21:19;;;;;;;6.70;1.48;;;;;;;;;;4918100;29;20059;-58
2020/12/13 12:23:45;;;;;;;6.72;1.38;;;;;;;;;;4928741;29;20054;-58
2020/12/13 12:26:10;;;;;;;3.92;1.10;;;;;;;;;;4922475;29;20044;-58
2020/12/13 12:28:36;;;;;;;4.13;1.45;;;;;;;;;;4925913;29;20535;-57
2020/12/13 12:31:02;;;;;;;3.72;1.27;;;;;;;;;;4929764;29;20051;-56
2020/12/13 12:33:28;;;;;;;3.30;1.15;;;;;;;;;;4927839;29;20127;-58
2020/12/13 12:35:54;;;;;;;2.88;0.95;;;;;;;;;;4928748;29;20039;-57
2020/12/13 12:38:20;;;;;;;2.97;1.00;;;;;;;;;;4926857;29;20043;-56
2020/12/13 12:40:45;;;;;;;4.05;1.10;;;;;;;;;;4928097;29;20059;-57
2020/12/13 12:43:11;;;;;;;4.50;1.10;;;;;;;;;;4929226;29;20155;-58
2020/12/13 12:45:37;;;;;;;4.68;1.30;;;;;;;;;;4925651;29;20060;-58
2020/12/13 12:48:03;;;;;;;4.63;1.13;;;;;;;;;;4926680;29;20040;-58
2020/12/13 12:50:29;;;;;;;5.78;1.20;;;;;;;;;;4925180;29;20528;-58
2020/12/13 12:52:55;;;;;;;4.75;1.23;;;;;;;;;;4911593;29;20067;-58
2020/12/13 12:55:21;;;;;;;4.80;1.25;;;;;;;;;;4927141;29;20050;-57
2020/12/13 12:57:49;;;;;;;6.20;1.27;;;;;;;;;;4928537;29;20058;-57
2020/12/13 13:00:41;;;;;;;5.35;1.23;;;;;;;;;;4930232;29;20107;-56
2020/12/13 13:03:07;;;;;;;3.75;1.27;;;;;;;;;;4931646;29;20055;-57
2020/12/13 13:05:45;;;;;;;3.45;1.10;;;;;;;;;;4927832;29;20196;-57
2020/12/13 13:08:33;;;;;;;4.93;1.45;;;;;;;;;;4925939;29;20103;-58
2020/12/13 13:11:08;;;;;;;5.65;1.25;;;;;;;;;;4928823;29;20401;-58
2020/12/13 13:13:34;;;;;;;3.47;1.10;;;;;;;;;;4927665;29;20039;-56
2020/12/13 13:16:01;;;;;;;5.28;1.48;;;;;;;;;;4927205;29;20100;-57
2020/12/13 13:18:31;;;;;;;5.00;1.30;;;;;;;;;;4923936;29;20048;-58
2020/12/13 13:20:59;;;;;;;5.75;1.70;;;;;;;;;;4928664;29;20052;-56
2020/12/13 13:23:26;;;;;;;3.40;1.17;;;;;;;;;;4925707;29;20051;-56
2020/12/13 13:25:52;;;;;;;6.10;1.70;;;;;;;;;;4928468;29;20039;-57
2020/12/13 13:28:18;;;;;;;7.05;1.90;;;;;;;;;;4926711;29;20055;-56
2020/12/13 13:30:44;;;;;;;4.20;1.52;;;;;;;;;;4924398;29;20104;-56
2020/12/13 13:33:11;;;;;;;6.85;1.90;;;;;;;;;;4927513;29;20044;-56
2020/12/13 13:35:37;;;;;;;9.27;2.70;;;;;;;;;;4909469;29;20051;-55
2020/12/13 13:38:03;;;;;;;8.38;3.15;;;;;;;;;;4927413;29;20040;-58
2020/12/13 13:40:29;;;;;;;8.48;2.55;;;;;;;;;;4910413;29;20050;-57
2020/12/13 13:42:59;;;;;;;10.45;2.92;;;;;;;;;;4929632;29;20095;-56
2020/12/13 13:50:19;;;;;;;10.75;3.10;;;;;;;;;;4925977;29;20048;-57
2020/12/13 13:52:45;;;;;;;6.07;2.42;;;;;;;;;;4928730;29;20052;-57
2020/12/13 13:55:15;;;;;;;6.95;2.70;;;;;;;;;;4926451;29;20050;-56
2020/12/13 13:57:41;;;;;;;7.45;2.90;;;;;;;;;;4928682;29;20044;-56
2020/12/13 14:00:09;;;;;;;6.72;2.83;;;;;;;;;;4926327;29;20048;-58
2020/12/13 14:02:35;;;;;;;7.03;3.25;;;;;;;;;;4923906;29;20044;-55
2020/12/13 14:05:02;;;;;;;7.32;3.15;;;;;;;;;;4924463;29;20087;-57
2020/12/13 14:09:57;;;;;;;9.02;3.63;;;;;;;;;;4924783;29;20568;-58
2020/12/13 14:12:23;;;;;;;11.48;3.83;;;;;;;;;;4925653;29;20060;-57
2020/12/13 14:14:48;;;;;;;14.77;4.10;;;;;;;;;;4926973;29;20039;-58
2020/12/13 14:17:14;;;;;;;8.85;4.50;;;;;;;;;;4926742;29;20075;-58
2020/12/13 14:19:40;;;;;;;8.68;4.00;;;;;;;;;;4924205;29;20044;-58
2020/12/13 14:22:06;;;;;;;8.95;3.28;;;;;;;;;;4925865;29;20108;-55
2020/12/13 14:24:32;;;;;;;6.82;2.72;;;;;;;;;;4924577;29;20039;-58
2020/12/13 14:26:59;;;;;;;7.20;3.35;;;;;;;;;;4925427;29;20048;-58
2020/12/13 14:29:25;;;;;;;7.45;4.00;;;;;;;;;;4924091;29;20064;-58
2020/12/13 14:31:51;;;;;;;7.50;2.80;;;;;;;;;;4925968;29;20071;-57
2020/12/13 14:34:17;;;;;;;8.80;3.25;;;;;;;;;;4925570;29;20035;-57
2020/12/13 14:36:43;;;;;;;7.85;3.13;;;;;;;;;;4926339;29;20055;-57
2020/12/13 14:39:09;;;;;;;6.53;2.95;;;;;;;;;;4924502;29;20311;-55
2020/12/13 14:41:35;;;;;;;9.00;3.38;;;;;;;;;;4926111;29;20067;-57
2020/12/13 14:44:01;;;;;;;6.05;2.83;;;;;;;;;;4924922;29;20051;-56
2020/12/13 14:46:27;;;;;;;10.18;2.97;;;;;;;;;;4925267;29;20044;-57
2020/12/13 14:48:53;;;;;;;11.48;3.00;;;;;;;;;;4924581;29;20088;-55
2020/12/13 14:51:18;;;;;;;7.10;2.97;;;;;;;;;;4924914;29;20056;-55
2020/12/13 14:53:45;;;;;;;7.72;3.10;;;;;;;;;;4927543;29;20047;-57